createdAt,value
2019-04-27T00:00:37.035Z,97708.55
2019-04-27T00:01:45.247Z,97709.00
2019-04-27T00:02:57.474Z,97708.84
2019-04-27T00:04:16.244Z,97707.80
2019-04-27T00:05:33.228Z,97709.16
2019-04-27T00:06:38.171Z,97707.13
2019-04-27T00:07:43.938Z,97711.81
2019-04-27T00:08:48.623Z,97699.58
2019-04-27T00:09:55.595Z,97704.14
2019-04-27T00:10:59.707Z,97709.56
2019-04-27T00:12:07.461Z,97702.05
2019-04-27T00:13:09.335Z,97706.89
2019-04-27T00:14:14.959Z,97699.02
2019-04-27T00:15:36.624Z,97703.09
2019-04-27T00:16:50.481Z,97698.75
2019-04-27T00:17:58.115Z,97696.12
2019-04-27T00:18:59.827Z,97701.92
2019-04-27T00:20:08.927Z,97699.58
2019-04-27T00:21:21.496Z,97702.75
2019-04-27T00:22:26.048Z,97700.80
2019-04-27T00:23:30.323Z,97697.84
2019-04-27T00:24:33.558Z,97698.00
2019-04-27T00:25:37.141Z,97694.73
2019-04-27T00:26:39.384Z,97689.44
2019-04-27T00:27:41.692Z,97693.41
2019-04-27T00:28:44.758Z,97693.61
2019-04-27T00:29:47.701Z,97687.95
2019-04-27T00:30:49.658Z,97691.74
2019-04-27T00:31:53.413Z,97691.02
2019-04-27T00:32:58.048Z,97691.45
2019-04-27T00:34:00.292Z,97689.16
2019-04-27T00:35:03.720Z,97687.15
2019-04-27T00:36:25.696Z,97681.89
2019-04-27T00:37:45.056Z,97684.85
2019-04-27T00:38:55.707Z,97684.40
2019-04-27T00:40:03.470Z,97686.11
2019-04-27T00:41:07.931Z,97685.66
2019-04-27T00:42:13.551Z,97682.16
2019-04-27T00:43:16.088Z,97682.91
2019-04-27T00:44:19.041Z,97679.62
2019-04-27T00:45:23.309Z,97681.91
2019-04-27T00:46:25.724Z,97685.45
2019-04-27T00:47:28.900Z,97681.33
2019-04-27T00:48:30.871Z,97684.83
2019-04-27T00:49:33.679Z,97677.70
2019-04-27T00:50:35.973Z,97678.95
2019-04-27T00:51:38.014Z,97679.58
2019-04-27T00:52:40.347Z,97679.88
2019-04-27T00:53:43.580Z,97671.95
2019-04-27T00:54:47.300Z,97676.11
2019-04-27T00:55:54.196Z,97671.52
2019-04-27T00:56:56.647Z,97673.27
2019-04-27T00:58:10.117Z,97674.39
2019-04-27T00:59:23.921Z,97676.43
2019-04-27T01:00:45.097Z,97673.71
2019-04-27T01:01:55.097Z,97675.83
2019-04-27T01:03:05.373Z,97673.63
2019-04-27T01:04:26.202Z,97679.08
2019-04-27T01:05:30.011Z,97676.59
2019-04-27T01:06:33.612Z,97677.27
2019-04-27T01:07:36.258Z,97675.95
2019-04-27T01:08:39.149Z,97676.58
2019-04-27T01:09:40.885Z,97679.00
2019-04-27T01:10:43.851Z,97672.89
2019-04-27T01:11:46.037Z,97675.19
2019-04-27T01:12:48.529Z,97678.69
2019-04-27T01:13:50.859Z,97678.05
2019-04-27T01:14:54.656Z,97683.58
2019-04-27T01:15:57.155Z,97682.19
2019-04-27T01:17:01.437Z,97680.17
2019-04-27T01:18:12.366Z,97684.58
2019-04-27T01:19:10.400Z,97687.62
2019-04-27T01:20:12.960Z,97682.30
2019-04-27T01:21:15.545Z,97683.65
2019-04-27T01:22:18.857Z,97682.85
2019-04-27T01:23:21.550Z,97684.58
2019-04-27T01:24:23.782Z,97682.20
2019-04-27T01:25:28.964Z,97684.17
2019-04-27T01:26:38.711Z,97683.33
2019-04-27T01:27:40.753Z,97681.74
2019-04-27T01:28:53.952Z,97678.52
2019-04-27T01:29:56.238Z,97680.30
2019-04-27T01:31:02.986Z,97678.59
2019-04-27T01:32:06.546Z,97677.56
2019-04-27T01:33:11.449Z,97678.66
2019-04-27T01:34:14.189Z,97682.03
2019-04-27T01:35:16.723Z,97672.91
2019-04-27T01:36:19.251Z,97674.78
2019-04-27T01:37:21.546Z,97677.83
2019-04-27T01:38:24.541Z,97667.26
2019-04-27T01:39:28.932Z,97671.44
2019-04-27T01:40:31.563Z,97671.53
2019-04-27T01:41:33.830Z,97675.62
2019-04-27T01:42:36.374Z,97675.47
2019-04-27T01:43:39.183Z,97674.75
2019-04-27T01:44:41.700Z,97676.77
2019-04-27T01:45:44.144Z,97670.70
2019-04-27T01:46:46.371Z,97672.23
2019-04-27T01:47:50.097Z,97669.16
2019-04-27T01:48:52.122Z,97677.36
2019-04-27T01:49:54.598Z,97674.00
2019-04-27T01:50:59.262Z,97664.55
2019-04-27T01:52:02.348Z,97671.80
2019-04-27T01:53:04.782Z,97669.14
2019-04-27T01:54:10.372Z,97672.80
2019-04-27T01:55:12.916Z,97673.69
2019-04-27T01:56:15.319Z,97671.94
2019-04-27T01:57:19.458Z,97670.77
2019-04-27T01:58:22.005Z,97667.06
2019-04-27T01:59:24.088Z,97662.77
2019-04-27T02:00:44.377Z,97665.69
2019-04-27T02:01:54.692Z,97663.93
2019-04-27T02:03:00.208Z,97660.00
2019-04-27T02:04:14.265Z,97663.02
2019-04-27T02:05:21.437Z,97667.05
2019-04-27T02:06:25.275Z,97670.61
2019-04-27T02:07:29.939Z,97663.08
2019-04-27T02:08:32.307Z,97672.43
2019-04-27T02:09:35.063Z,97667.70
2019-04-27T02:10:37.446Z,97665.91
2019-04-27T02:11:40.813Z,97667.95
2019-04-27T02:12:44.049Z,97674.48
2019-04-27T02:13:50.832Z,97675.53
2019-04-27T02:14:53.054Z,97667.56
2019-04-27T02:15:54.885Z,97677.03
2019-04-27T02:16:57.409Z,97675.91
2019-04-27T02:18:00.102Z,97672.00
2019-04-27T02:19:03.181Z,97676.00
2019-04-27T02:20:06.801Z,97683.94
2019-04-27T02:21:10.539Z,97675.23
2019-04-27T02:22:12.727Z,97683.98
2019-04-27T02:23:17.013Z,97672.27
2019-04-27T02:24:19.872Z,97675.46
2019-04-27T02:25:22.744Z,97672.76
2019-04-27T02:26:25.031Z,97682.14
2019-04-27T02:27:28.712Z,97688.33
2019-04-27T02:28:43.179Z,97686.34
2019-04-27T02:30:02.956Z,97678.10
2019-04-27T02:31:25.397Z,97681.06
2019-04-27T02:32:45.158Z,97681.91
2019-04-27T02:34:04.483Z,97691.91
2019-04-27T02:35:09.367Z,97690.87
2019-04-27T02:36:15.196Z,97691.14
2019-04-27T02:37:16.491Z,97689.10
2019-04-27T02:38:20.697Z,97687.22
2019-04-27T02:39:23.442Z,97701.11
2019-04-27T02:40:53.978Z,97699.56
2019-04-27T02:41:56.333Z,97701.80
2019-04-27T02:42:59.859Z,97703.34
2019-04-27T02:44:14.796Z,97703.57
2019-04-27T02:45:19.594Z,97702.02
2019-04-27T02:46:21.656Z,97697.56
2019-04-27T02:47:24.159Z,97692.80
2019-04-27T02:48:26.376Z,97697.09
2019-04-27T02:49:30.432Z,97696.44
2019-04-27T02:50:33.237Z,97692.37
2019-04-27T02:51:36.877Z,97696.05
2019-04-27T02:52:41.038Z,97695.08
2019-04-27T02:53:50.741Z,97694.54
2019-04-27T02:54:52.499Z,97706.35
2019-04-27T02:55:54.739Z,97700.13
2019-04-27T02:56:59.349Z,97690.02
2019-04-27T02:58:01.984Z,97694.54
2019-04-27T02:59:04.844Z,97693.91
2019-04-27T03:00:10.482Z,97697.81
2019-04-27T03:01:13.116Z,97697.48
2019-04-27T03:02:21.139Z,97700.92
2019-04-27T03:03:23.892Z,97704.38
2019-04-27T03:04:25.793Z,97698.57
2019-04-27T03:05:30.112Z,97695.69
2019-04-27T03:06:33.498Z,97696.41
2019-04-27T03:07:36.210Z,97704.80
2019-04-27T03:08:39.417Z,97706.37
2019-04-27T03:09:42.593Z,97701.95
2019-04-27T03:10:44.779Z,97703.75
2019-04-27T03:11:49.781Z,97698.50
2019-04-27T03:12:53.801Z,97706.42
2019-04-27T03:14:27.955Z,97703.08
2019-04-27T03:15:23.378Z,97705.01
2019-04-27T03:16:32.442Z,97706.13
2019-04-27T03:17:39.363Z,97709.46
2019-04-27T03:18:42.949Z,97700.12
2019-04-27T03:19:52.272Z,97705.38
2019-04-27T03:21:02.419Z,97704.62
2019-04-27T03:22:13.771Z,97699.87
2019-04-27T03:23:17.019Z,97702.74
2019-04-27T03:24:23.019Z,97701.91
2019-04-27T03:25:45.946Z,97705.83
2019-04-27T03:26:50.612Z,97709.98
2019-04-27T03:28:02.077Z,97709.46
2019-04-27T03:29:02.535Z,97711.50
2019-04-27T03:30:12.454Z,97718.00
2019-04-27T03:31:15.173Z,97715.77
2019-04-27T03:32:22.034Z,97715.48
2019-04-27T03:33:22.892Z,97717.66
2019-04-27T03:34:24.911Z,97710.14
2019-04-27T03:35:32.124Z,97712.45
2019-04-27T03:36:32.078Z,97713.79
2019-04-27T03:37:34.625Z,97719.81
2019-04-27T03:38:39.567Z,97719.34
2019-04-27T03:39:41.348Z,97726.15
2019-04-27T03:40:43.988Z,97727.07
2019-04-27T03:41:46.274Z,97716.61
2019-04-27T03:42:50.891Z,97724.27
2019-04-27T03:43:54.094Z,97724.27
2019-04-27T03:44:56.765Z,97727.06
2019-04-27T03:46:00.552Z,97728.45
2019-04-27T03:47:04.314Z,97724.27
2019-04-27T03:48:06.873Z,97727.17
2019-04-27T03:49:09.858Z,97725.45
2019-04-27T03:50:14.899Z,97722.84
2019-04-27T03:51:20.141Z,97724.23
2019-04-27T03:52:42.179Z,97719.70
2019-04-27T03:53:49.779Z,97720.11
2019-04-27T03:54:59.906Z,97719.25
2019-04-27T03:56:21.532Z,97715.27
2019-04-27T03:57:31.705Z,97719.59
2019-04-27T03:58:36.035Z,97713.33
2019-04-27T03:59:56.553Z,97712.48
2019-04-27T04:01:00.024Z,97716.55
2019-04-27T04:02:04.640Z,97712.57
2019-04-27T04:03:07.517Z,97724.71
2019-04-27T04:04:10.708Z,97720.59
2019-04-27T04:05:13.383Z,97724.02
2019-04-27T04:06:16.356Z,97723.17
2019-04-27T04:07:20.588Z,97720.20
2019-04-27T04:08:23.341Z,97731.52
2019-04-27T04:09:29.557Z,97724.70
2019-04-27T04:10:33.731Z,97730.59
2019-04-27T04:11:41.213Z,97725.34
2019-04-27T04:12:50.611Z,97732.25
2019-04-27T04:13:54.726Z,97736.75
2019-04-27T04:14:59.627Z,97732.78
2019-04-27T04:16:13.054Z,97744.69
2019-04-27T04:17:19.771Z,97744.08
2019-04-27T04:18:23.692Z,97745.80
2019-04-27T04:19:25.851Z,97745.73
2019-04-27T04:20:30.413Z,97739.09
2019-04-27T04:21:33.476Z,97744.98
2019-04-27T04:22:36.293Z,97744.99
2019-04-27T04:23:40.213Z,97748.23
2019-04-27T04:24:42.903Z,97752.94
2019-04-27T04:25:46.498Z,97757.67
2019-04-27T04:26:50.288Z,97754.27
2019-04-27T04:27:52.745Z,97755.36
2019-04-27T04:28:55.653Z,97751.34
2019-04-27T04:29:59.456Z,97752.71
2019-04-27T04:31:01.929Z,97752.45
2019-04-27T04:32:04.090Z,97747.69
2019-04-27T04:33:05.821Z,97751.73
2019-04-27T04:34:09.680Z,97754.13
2019-04-27T04:35:21.706Z,97758.23
2019-04-27T04:36:25.093Z,97765.34
2019-04-27T04:37:29.411Z,97766.39
2019-04-27T04:38:31.091Z,97768.16
2019-04-27T04:39:34.203Z,97767.20
2019-04-27T04:40:50.417Z,97767.39
2019-04-27T04:42:10.471Z,97763.02
2019-04-27T04:43:14.973Z,97767.98
2019-04-27T04:44:40.026Z,97772.91
2019-04-27T04:46:01.209Z,97771.17
2019-04-27T04:47:16.324Z,97774.20
2019-04-27T04:48:20.574Z,97770.16
2019-04-27T04:49:23.197Z,97781.09
2019-04-27T04:50:25.489Z,97779.48
2019-04-27T04:51:40.193Z,97778.60
2019-04-27T04:52:42.600Z,97781.25
2019-04-27T04:53:44.799Z,97786.34
2019-04-27T04:54:49.376Z,97779.83
2019-04-27T04:55:51.938Z,97781.97
2019-04-27T04:56:54.442Z,97789.78
2019-04-27T04:57:56.184Z,97797.73
2019-04-27T04:59:00.026Z,97786.99
2019-04-27T05:00:06.040Z,97785.18
2019-04-27T05:01:09.928Z,97783.02
2019-04-27T05:02:12.846Z,97788.53
2019-04-27T05:03:15.832Z,97786.92
2019-04-27T05:04:19.321Z,97786.09
2019-04-27T05:05:21.995Z,97797.36
2019-04-27T05:06:25.635Z,97793.55
2019-04-27T05:07:29.698Z,97801.53
2019-04-27T05:08:33.941Z,97794.32
2019-04-27T05:09:36.288Z,97792.94
2019-04-27T05:10:39.483Z,97787.68
2019-04-27T05:11:42.169Z,97800.02
2019-04-27T05:12:44.293Z,97804.88
2019-04-27T05:13:46.721Z,97785.64
2019-04-27T05:14:49.037Z,97800.83
2019-04-27T05:15:52.997Z,97799.32
2019-04-27T05:16:55.137Z,97797.05
2019-04-27T05:17:59.184Z,97798.44
2019-04-27T05:19:01.451Z,97799.21
2019-04-27T05:20:06.245Z,97793.08
2019-04-27T05:21:13.732Z,97800.92
2019-04-27T05:22:15.915Z,97794.02
2019-04-27T05:23:18.680Z,97799.98
2019-04-27T05:24:21.172Z,97806.86
2019-04-27T05:25:23.630Z,97794.16
2019-04-27T05:26:29.376Z,97801.23
2019-04-27T05:27:31.824Z,97801.17
2019-04-27T05:28:33.628Z,97806.36
2019-04-27T05:29:36.213Z,97798.66
2019-04-27T05:30:39.093Z,97804.63
2019-04-27T05:31:42.898Z,97804.14
2019-04-27T05:32:45.360Z,97800.30
2019-04-27T05:33:49.057Z,97802.84
2019-04-27T05:34:51.853Z,97818.70
2019-04-27T05:35:54.238Z,97803.50
2019-04-27T05:36:56.550Z,97795.66
2019-04-27T05:38:00.941Z,97797.09
2019-04-27T05:39:05.446Z,97796.34
2019-04-27T05:40:09.138Z,97795.63
2019-04-27T05:41:11.871Z,97792.50
2019-04-27T05:42:17.136Z,97802.12
2019-04-27T05:43:21.035Z,97797.70
2019-04-27T05:44:33.970Z,97805.36
2019-04-27T05:45:53.167Z,97813.83
2019-04-27T05:46:56.437Z,97813.36
2019-04-27T05:48:03.186Z,97828.09
2019-04-27T05:49:09.526Z,97823.92
2019-04-27T05:50:13.517Z,97831.73
2019-04-27T05:51:17.113Z,97844.31
2019-04-27T05:52:29.357Z,97835.58
2019-04-27T05:53:32.017Z,97844.45
2019-04-27T05:54:34.097Z,97849.73
2019-04-27T05:55:36.192Z,97859.02
2019-04-27T05:56:40.147Z,97858.96
2019-04-27T05:57:43.114Z,97865.73
2019-04-27T05:58:45.785Z,97855.91
2019-04-27T05:59:49.857Z,97872.22
2019-04-27T06:00:52.721Z,97870.62
2019-04-27T06:01:59.148Z,97876.36
2019-04-27T06:03:02.760Z,97871.81
2019-04-27T06:04:05.729Z,97869.50
2019-04-27T06:05:08.825Z,97864.91
2019-04-27T06:06:12.912Z,97869.82
2019-04-27T06:07:16.944Z,97867.34
2019-04-27T06:08:21.105Z,97870.62
2019-04-27T06:09:23.952Z,97871.99
2019-04-27T06:10:26.851Z,97874.22
2019-04-27T06:11:29.576Z,97865.59
2019-04-27T06:12:31.796Z,97869.55
2019-04-27T06:13:34.084Z,97866.86
2019-04-27T06:14:36.290Z,97871.11
2019-04-27T06:15:38.950Z,97867.11
2019-04-27T06:16:42.970Z,97870.06
2019-04-27T06:17:45.221Z,97872.55
2019-04-27T06:18:49.323Z,97869.81
2019-04-27T06:19:52.932Z,97877.42
2019-04-27T06:20:56.504Z,97874.32
2019-04-27T06:22:01.283Z,97870.11
2019-04-27T06:23:05.733Z,97877.91
2019-04-27T06:24:08.782Z,97876.02
2019-04-27T06:25:12.162Z,97874.63
2019-04-27T06:26:15.572Z,97880.51
2019-04-27T06:27:21.084Z,97886.78
2019-04-27T06:28:23.966Z,97882.80
2019-04-27T06:29:26.590Z,97876.73
2019-04-27T06:30:29.358Z,97877.34
2019-04-27T06:31:31.855Z,97876.42
2019-04-27T06:32:34.749Z,97883.73
2019-04-27T06:33:36.962Z,97888.43
2019-04-27T06:34:39.335Z,97883.51
2019-04-27T06:35:41.746Z,97884.35
2019-04-27T06:36:43.868Z,97881.34
2019-04-27T06:37:46.473Z,97880.23
2019-04-27T06:38:51.093Z,97882.07
2019-04-27T06:39:53.489Z,97885.03
2019-04-27T06:40:56.185Z,97880.91
2019-04-27T06:42:01.096Z,97883.42
2019-04-27T06:43:03.503Z,97876.47
2019-04-27T06:44:06.097Z,97879.46
2019-04-27T06:45:09.930Z,97877.30
2019-04-27T06:46:11.869Z,97872.67
2019-04-27T06:47:14.099Z,97873.67
2019-04-27T06:48:17.042Z,97878.11
2019-04-27T06:49:19.601Z,97873.02
2019-04-27T06:50:21.993Z,97875.02
2019-04-27T06:51:24.716Z,97874.98
2019-04-27T06:52:29.196Z,97870.70
2019-04-27T06:53:35.894Z,97871.38
2019-04-27T06:54:38.935Z,97877.07
2019-04-27T06:55:41.696Z,97872.51
2019-04-27T06:56:44.766Z,97877.95
2019-04-27T06:57:49.103Z,97873.02
2019-04-27T06:58:51.959Z,97871.19
2019-04-27T06:59:54.603Z,97869.23
2019-04-27T07:00:56.809Z,97874.52
2019-04-27T07:02:02.696Z,97875.98
2019-04-27T07:03:05.494Z,97865.13
2019-04-27T07:04:08.809Z,97869.41
2019-04-27T07:05:13.120Z,97865.98
2019-04-27T07:06:15.530Z,97857.05
2019-04-27T07:07:19.379Z,97871.90
2019-04-27T07:08:21.790Z,97869.09
2019-04-27T07:09:23.692Z,97859.03
2019-04-27T07:10:25.466Z,97869.43
2019-04-27T07:11:29.594Z,97863.80
2019-04-27T07:12:35.402Z,97864.65
2019-04-27T07:13:39.029Z,97867.09
2019-04-27T07:14:52.231Z,97878.82
2019-04-27T07:15:45.535Z,97872.58
2019-04-27T07:16:50.756Z,97885.50
2019-04-27T07:17:53.394Z,97886.84
2019-04-27T07:18:59.234Z,97890.06
2019-04-27T07:20:03.701Z,97898.04
2019-04-27T07:21:16.288Z,97893.23
2019-04-27T07:22:11.475Z,97899.91
2019-04-27T07:23:14.920Z,97891.67
2019-04-27T07:24:19.487Z,97889.83
2019-04-27T07:25:22.851Z,97894.62
2019-04-27T07:26:27.288Z,97906.51
2019-04-27T07:27:29.400Z,97893.50
2019-04-27T07:28:32.712Z,97898.40
2019-04-27T07:29:36.075Z,97890.16
2019-04-27T07:30:38.815Z,97894.92
2019-04-27T07:31:41.532Z,97891.34
2019-04-27T07:32:43.745Z,97892.81
2019-04-27T07:33:45.662Z,97889.36
2019-04-27T07:34:49.777Z,97886.25
2019-04-27T07:35:52.015Z,97903.08
2019-04-27T07:36:54.491Z,97887.22
2019-04-27T07:37:58.813Z,97895.82
2019-04-27T07:39:04.678Z,97896.13
2019-04-27T07:40:09.006Z,97880.79
2019-04-27T07:41:11.684Z,97881.64
2019-04-27T07:42:13.905Z,97871.06
2019-04-27T07:43:34.153Z,97865.94
2019-04-27T07:44:39.138Z,97872.52
2019-04-27T07:45:43.018Z,97858.02
2019-04-27T07:46:51.334Z,97871.98
2019-04-27T07:47:54.321Z,97855.46
2019-04-27T07:48:56.964Z,97863.16
2019-04-27T07:50:01.516Z,97861.72
2019-04-27T07:51:03.895Z,97860.38
2019-04-27T07:52:06.354Z,97860.88
2019-04-27T07:53:09.220Z,97871.72
2019-04-27T07:54:11.380Z,97894.72
2019-04-27T07:55:13.796Z,97884.52
2019-04-27T07:56:16.506Z,97879.26
2019-04-27T07:57:19.828Z,97881.47
2019-04-27T07:58:22.423Z,97882.92
2019-04-27T07:59:24.630Z,97897.75
2019-04-27T08:00:28.772Z,97892.71
2019-04-27T08:01:32.177Z,97900.78
2019-04-27T08:02:34.682Z,97904.13
2019-04-27T08:03:36.662Z,97909.92
2019-04-27T08:04:40.030Z,97907.96
2019-04-27T08:05:42.601Z,97906.08
2019-04-27T08:06:44.664Z,97911.30
2019-04-27T08:07:49.073Z,97906.59
2019-04-27T08:08:52.109Z,97909.06
2019-04-27T08:09:54.482Z,97902.73
2019-04-27T08:10:59.408Z,97910.42
2019-04-27T08:12:02.036Z,97911.44
2019-04-27T08:13:04.272Z,97906.44
2019-04-27T08:14:06.586Z,97912.70
2019-04-27T08:15:10.020Z,97911.02
2019-04-27T08:16:12.163Z,97911.52
2019-04-27T08:17:14.751Z,97917.88
2019-04-27T08:18:18.987Z,97920.44
2019-04-27T08:19:20.844Z,97924.27
2019-04-27T08:20:23.219Z,97926.89
2019-04-27T08:21:26.367Z,97922.95
2019-04-27T08:22:29.152Z,97925.06
2019-04-27T08:23:31.807Z,97927.64
2019-04-27T08:24:34.691Z,97923.77
2019-04-27T08:25:39.196Z,97919.52
2019-04-27T08:26:51.111Z,97925.25
2019-04-27T08:27:54.756Z,97920.45
2019-04-27T08:29:12.194Z,97923.05
2019-04-27T08:30:20.873Z,97927.33
2019-04-27T08:31:25.829Z,97929.38
2019-04-27T08:32:41.517Z,97932.24
2019-04-27T08:33:44.009Z,97926.58
2019-04-27T08:34:46.559Z,97927.79
2019-04-27T08:35:49.308Z,97927.30
2019-04-27T08:36:52.052Z,97916.67
2019-04-27T08:37:54.628Z,97921.66
2019-04-27T08:38:58.753Z,97931.35
2019-04-27T08:40:00.782Z,97926.26
2019-04-27T08:41:03.918Z,97932.64
2019-04-27T08:42:06.256Z,97931.61
2019-04-27T08:43:09.226Z,97923.92
2019-04-27T08:44:11.466Z,97926.17
2019-04-27T08:45:14.176Z,97928.19
2019-04-27T08:46:16.584Z,97924.34
2019-04-27T08:47:19.567Z,97924.20
2019-04-27T08:48:33.839Z,97926.63
2019-04-27T08:49:29.239Z,97931.12
2019-04-27T08:50:31.586Z,97928.28
2019-04-27T08:51:33.854Z,97929.22
2019-04-27T08:52:36.674Z,97929.27
2019-04-27T08:53:39.806Z,97932.25
2019-04-27T08:54:42.288Z,97938.14
2019-04-27T08:55:44.699Z,97934.42
2019-04-27T08:56:47.042Z,97932.20
2019-04-27T08:57:49.085Z,97930.30
2019-04-27T08:58:51.785Z,97930.97
2019-04-27T08:59:54.460Z,97931.53
2019-04-27T09:00:56.556Z,97933.89
2019-04-27T09:01:59.198Z,97932.73
2019-04-27T09:03:01.400Z,97938.58
2019-04-27T09:04:03.842Z,97935.97
2019-04-27T09:05:06.977Z,97932.98
2019-04-27T09:06:10.792Z,97942.47
2019-04-27T09:07:31.887Z,97941.70
2019-04-27T09:08:36.175Z,97942.23
2019-04-27T09:09:42.576Z,97935.92
2019-04-27T09:10:50.925Z,97932.95
2019-04-27T09:12:11.867Z,97941.91
2019-04-27T09:13:25.587Z,97936.52
2019-04-27T09:14:40.703Z,97937.31
2019-04-27T09:16:00.179Z,97943.02
2019-04-27T09:17:07.195Z,97944.71
2019-04-27T09:18:12.714Z,97944.97
2019-04-27T09:19:20.051Z,97942.58
2019-04-27T09:20:24.245Z,97939.77
2019-04-27T09:21:29.325Z,97945.72
2019-04-27T09:22:32.154Z,97943.87
2019-04-27T09:23:34.559Z,97944.72
2019-04-27T09:24:36.908Z,97943.89
2019-04-27T09:25:39.677Z,97944.83
2019-04-27T09:26:42.813Z,97940.55
2019-04-27T09:27:45.693Z,97940.67
2019-04-27T09:28:49.307Z,97944.17
2019-04-27T09:29:52.133Z,97942.72
2019-04-27T09:30:55.567Z,97950.55
2019-04-27T09:31:59.558Z,97943.80
2019-04-27T09:33:03.425Z,97940.65
2019-04-27T09:34:05.839Z,97941.43
2019-04-27T09:35:08.952Z,97952.70
2019-04-27T09:36:11.281Z,97944.75
2019-04-27T09:37:15.931Z,97953.70
2019-04-27T09:38:18.694Z,97946.83
2019-04-27T09:39:22.567Z,97956.87
2019-04-27T09:40:26.639Z,97953.21
2019-04-27T09:41:29.053Z,97954.11
2019-04-27T09:42:31.700Z,97949.78
2019-04-27T09:43:34.252Z,97951.58
2019-04-27T09:44:38.066Z,97957.39
2019-04-27T09:45:41.708Z,97953.63
2019-04-27T09:46:44.203Z,97948.90
2019-04-27T09:47:46.920Z,97955.87
2019-04-27T09:48:51.699Z,97949.42
2019-04-27T09:49:54.068Z,97956.50
2019-04-27T09:50:56.558Z,97952.58
2019-04-27T09:51:59.424Z,97951.23
2019-04-27T09:53:01.816Z,97942.51
2019-04-27T09:54:05.782Z,97944.23
2019-04-27T09:55:09.007Z,97947.19
2019-04-27T09:56:11.920Z,97949.77
2019-04-27T09:57:16.050Z,97945.98
2019-04-27T09:58:18.754Z,97942.34
2019-04-27T09:59:21.438Z,97936.34
2019-04-27T10:00:24.746Z,97941.30
2019-04-27T10:01:28.906Z,97946.26
2019-04-27T10:02:31.521Z,97937.72
2019-04-27T10:03:36.061Z,97940.46
2019-04-27T10:04:38.630Z,97941.45
2019-04-27T10:05:43.154Z,97946.26
2019-04-27T10:06:46.187Z,97945.26
2019-04-27T10:07:49.685Z,97945.91
2019-04-27T10:08:52.446Z,97944.13
2019-04-27T10:09:55.987Z,97949.97
2019-04-27T10:10:58.671Z,97954.30
2019-04-27T10:12:01.203Z,97954.46
2019-04-27T10:13:04.026Z,97949.34
2019-04-27T10:14:07.435Z,97950.58
2019-04-27T10:15:11.751Z,97953.51
2019-04-27T10:16:13.793Z,97950.56
2019-04-27T10:17:16.708Z,97953.35
2019-04-27T10:18:19.069Z,97952.59
2019-04-27T10:19:28.694Z,97949.77
2019-04-27T10:20:25.321Z,97953.42
2019-04-27T10:21:28.122Z,97952.22
2019-04-27T10:22:40.558Z,97950.19
2019-04-27T10:23:36.511Z,97953.38
2019-04-27T10:24:39.791Z,97949.42
2019-04-27T10:25:42.090Z,97955.91
2019-04-27T10:26:44.891Z,97959.19
2019-04-27T10:27:49.408Z,97957.27
2019-04-27T10:28:51.987Z,97960.36
2019-04-27T10:29:54.663Z,97964.96
2019-04-27T10:30:56.999Z,97954.28
2019-04-27T10:31:59.473Z,97960.88
2019-04-27T10:33:03.297Z,97954.59
2019-04-27T10:34:05.985Z,97964.59
2019-04-27T10:35:09.147Z,97966.92
2019-04-27T10:36:12.167Z,97967.44
2019-04-27T10:37:16.035Z,97968.38
2019-04-27T10:38:18.973Z,97973.37
2019-04-27T10:39:21.567Z,97963.92
2019-04-27T10:40:23.871Z,97965.89
2019-04-27T10:41:26.520Z,97964.05
2019-04-27T10:42:28.625Z,97966.07
2019-04-27T10:43:30.506Z,97964.42
2019-04-27T10:44:32.791Z,97967.39
2019-04-27T10:45:35.765Z,97969.84
2019-04-27T10:46:41.370Z,97971.66
2019-04-27T10:47:43.575Z,97968.91
2019-04-27T10:48:47.093Z,97980.59
2019-04-27T10:49:51.533Z,97967.92
2019-04-27T10:50:54.419Z,97977.31
2019-04-27T10:51:56.968Z,97974.49
2019-04-27T10:52:59.496Z,97979.57
2019-04-27T10:54:04.017Z,97975.93
2019-04-27T10:55:12.211Z,97978.81
2019-04-27T10:56:14.584Z,97979.36
2019-04-27T10:57:17.274Z,97984.88
2019-04-27T10:58:19.518Z,97980.42
2019-04-27T10:59:22.165Z,97983.91
2019-04-27T11:00:27.987Z,97978.28
2019-04-27T11:01:31.628Z,97973.05
2019-04-27T11:02:34.174Z,97980.79
2019-04-27T11:03:55.478Z,97981.77
2019-04-27T11:05:01.234Z,97976.67
2019-04-27T11:06:22.937Z,97981.07
2019-04-27T11:07:28.140Z,97977.94
2019-04-27T11:08:31.112Z,97979.00
2019-04-27T11:09:34.454Z,97982.42
2019-04-27T11:10:36.351Z,97980.31
2019-04-27T11:11:40.310Z,97980.45
2019-04-27T11:12:42.576Z,97983.91
2019-04-27T11:13:46.072Z,97993.38
2019-04-27T11:14:48.754Z,97991.13
2019-04-27T11:15:50.606Z,97992.39
2019-04-27T11:16:53.743Z,97987.42
2019-04-27T11:17:56.307Z,97985.72
2019-04-27T11:18:58.857Z,97992.84
2019-04-27T11:20:02.952Z,97990.91
2019-04-27T11:21:05.836Z,97988.41
2019-04-27T11:22:09.029Z,97994.57
2019-04-27T11:23:12.409Z,97992.75
2019-04-27T11:24:14.484Z,97991.11
2019-04-27T11:25:17.541Z,97989.63
2019-04-27T11:26:19.886Z,97993.64
2019-04-27T11:27:24.127Z,97994.74
2019-04-27T11:28:26.471Z,97994.37
2019-04-27T11:29:29.177Z,97991.84
2019-04-27T11:30:31.670Z,97997.21
2019-04-27T11:31:36.266Z,98002.03
2019-04-27T11:32:38.846Z,98002.55
2019-04-27T11:33:40.603Z,98005.38
2019-04-27T11:35:00.246Z,98000.63
2019-04-27T11:36:16.627Z,98004.05
2019-04-27T11:37:20.956Z,98007.84
2019-04-27T11:38:23.269Z,98010.20
2019-04-27T11:39:26.086Z,98007.08
2019-04-27T11:40:29.288Z,98005.63
2019-04-27T11:41:31.678Z,98001.55
2019-04-27T11:42:33.481Z,98003.66
2019-04-27T11:43:36.363Z,98006.47
2019-04-27T11:44:40.433Z,98000.96
2019-04-27T11:45:42.931Z,98007.61
2019-04-27T11:46:47.538Z,98008.05
2019-04-27T11:47:50.329Z,98000.18
2019-04-27T11:48:52.536Z,98000.34
2019-04-27T11:49:57.829Z,98009.97
2019-04-27T11:51:00.348Z,98002.92
2019-04-27T11:52:03.441Z,97999.22
2019-04-27T11:53:06.297Z,98002.00
2019-04-27T11:54:08.983Z,98004.27
2019-04-27T11:55:11.795Z,98001.28
2019-04-27T11:56:15.719Z,98000.41
2019-04-27T11:57:18.296Z,97999.09
2019-04-27T11:58:21.326Z,97998.23
2019-04-27T11:59:23.735Z,97996.77
2019-04-27T12:00:27.691Z,98000.09
2019-04-27T12:01:30.342Z,97996.97
2019-04-27T12:02:33.342Z,98001.84
2019-04-27T12:03:35.939Z,97998.10
2019-04-27T12:04:38.240Z,97999.92
2019-04-27T12:05:40.628Z,98007.67
2019-04-27T12:06:43.353Z,97996.78
2019-04-27T12:07:47.855Z,98002.55
2019-04-27T12:08:50.512Z,97991.09
2019-04-27T12:09:52.433Z,98002.92
2019-04-27T12:10:55.741Z,97994.92
2019-04-27T12:12:12.706Z,98002.70
2019-04-27T12:13:02.265Z,97997.95
2019-04-27T12:14:06.212Z,97996.80
2019-04-27T12:15:09.701Z,98003.34
2019-04-27T12:16:11.763Z,97995.23
2019-04-27T12:17:16.411Z,97999.89
2019-04-27T12:18:18.515Z,97996.77
2019-04-27T12:19:20.966Z,97998.64
2019-04-27T12:20:23.301Z,97992.68
2019-04-27T12:21:26.133Z,97993.05
2019-04-27T12:22:28.474Z,97987.22
2019-04-27T12:23:35.551Z,97986.78
2019-04-27T12:24:35.717Z,97991.72
2019-04-27T12:25:38.370Z,97985.77
2019-04-27T12:26:42.962Z,97988.77
2019-04-27T12:27:51.023Z,97980.32
2019-04-27T12:28:56.102Z,97986.94
2019-04-27T12:30:07.388Z,97987.53
2019-04-27T12:31:16.340Z,97990.86
2019-04-27T12:32:19.407Z,97992.04
2019-04-27T12:33:21.831Z,97999.64
2019-04-27T12:34:25.606Z,97988.83
2019-04-27T12:35:29.249Z,97996.20
2019-04-27T12:36:33.411Z,97994.16
2019-04-27T12:37:35.942Z,97989.84
2019-04-27T12:38:38.348Z,97980.66